createdAt,value
2024-03-28T00:00:28.679Z,8.00
2024-03-28T00:03:16.510Z,8.60
2024-03-28T00:05:55.998Z,7.10
2024-03-28T00:08:25.477Z,9.90
2024-03-28T00:10:54.353Z,8.90
2024-03-28T00:13:22.839Z,4.80
2024-03-28T00:16:00.426Z,4.50
2024-03-28T00:18:29.941Z,5.60
2024-03-28T00:21:03.113Z,7.30
2024-03-28T00:23:30.794Z,3.80
2024-03-28T00:25:59.671Z,6.80
2024-03-28T00:28:27.734Z,6.20
2024-03-28T00:30:55.387Z,6.30
2024-03-28T00:33:23.030Z,7.60
2024-03-28T00:35:51.142Z,5.50
2024-03-28T00:38:18.937Z,5.80
2024-03-28T00:40:56.464Z,6.40
2024-03-28T00:43:24.382Z,7.20
2024-03-28T00:45:52.016Z,6.50
2024-03-28T00:48:20.405Z,7.00
2024-03-28T00:51:00.090Z,7.20
2024-03-28T00:53:28.650Z,8.40
2024-03-28T00:55:58.817Z,7.90
2024-03-28T00:58:27.423Z,6.50
2024-03-28T01:00:55.140Z,7.30
2024-03-28T01:03:23.069Z,6.50
2024-03-28T01:05:58.511Z,8.20
2024-03-28T01:08:26.477Z,5.70
2024-03-28T01:10:55.496Z,4.70
2024-03-28T01:13:23.347Z,6.90
2024-03-28T01:15:50.927Z,5.10
2024-03-28T01:18:18.507Z,8.70
2024-03-28T01:20:46.162Z,7.80
2024-03-28T01:23:13.842Z,4.10
2024-03-28T01:25:41.497Z,7.40
2024-03-28T01:28:11.003Z,6.20
2024-03-28T01:30:40.539Z,6.10
2024-03-28T01:33:08.159Z,6.90
2024-03-28T01:35:37.505Z,6.40
2024-03-28T01:38:05.259Z,6.60
2024-03-28T01:40:32.931Z,5.90
2024-03-28T01:43:06.338Z,10.00
2024-03-28T01:45:34.964Z,9.00
2024-03-28T01:48:03.302Z,6.30
2024-03-28T01:50:31.392Z,7.40
2024-03-28T01:53:00.357Z,8.40
2024-03-28T01:55:28.447Z,9.90
2024-03-28T01:57:58.490Z,11.10
2024-03-28T02:00:26.303Z,11.30
2024-03-28T02:02:58.346Z,10.40
2024-03-28T02:05:26.563Z,9.60
2024-03-28T02:07:54.178Z,8.90
2024-03-28T02:10:21.815Z,9.10
2024-03-28T02:12:50.093Z,9.50
2024-03-28T02:15:17.739Z,12.60
2024-03-28T02:17:47.006Z,8.40
2024-03-28T02:20:14.780Z,11.40
2024-03-28T02:22:42.381Z,14.20
2024-03-28T02:25:10.389Z,10.40
2024-03-28T02:27:37.967Z,11.60
2024-03-28T02:30:09.918Z,8.50
2024-03-28T02:32:37.890Z,9.20
2024-03-28T02:35:08.053Z,14.60
2024-03-28T02:37:35.707Z,10.80
2024-03-28T02:40:03.442Z,11.40
2024-03-28T02:42:31.046Z,16.50
2024-03-28T02:44:58.664Z,10.80
2024-03-28T02:47:26.354Z,17.70
2024-03-28T02:49:54.569Z,9.40
2024-03-28T02:52:22.609Z,15.90
2024-03-28T02:54:50.359Z,13.30
2024-03-28T02:57:25.166Z,15.80
2024-03-28T02:59:52.890Z,10.80
2024-03-28T03:02:20.628Z,11.00
2024-03-28T03:04:48.536Z,14.10
2024-03-28T03:07:16.520Z,14.00
2024-03-28T03:09:44.264Z,14.30
2024-03-28T03:12:12.336Z,16.90
2024-03-28T03:14:39.971Z,15.80
2024-03-28T03:17:07.559Z,13.50
2024-03-28T03:19:35.361Z,20.40
2024-03-28T03:22:03.768Z,14.70
2024-03-28T03:24:31.396Z,11.80
2024-03-28T03:26:59.320Z,12.30
2024-03-28T03:29:27.017Z,18.60
2024-03-28T03:31:54.557Z,12.80
2024-03-28T03:34:22.264Z,15.50
2024-03-28T03:36:50.021Z,20.00
2024-03-28T03:39:17.567Z,18.10
2024-03-28T03:41:46.031Z,20.10
2024-03-28T03:44:13.686Z,24.40
2024-03-28T03:46:42.763Z,18.90
2024-03-28T03:49:10.522Z,19.10
2024-03-28T03:51:38.732Z,17.00
2024-03-28T03:54:06.352Z,27.50
2024-03-28T03:56:33.990Z,22.90
2024-03-28T03:59:02.899Z,21.00
2024-03-28T04:01:30.852Z,24.20
2024-03-28T04:03:58.495Z,19.60
2024-03-28T04:06:26.199Z,22.90
2024-03-28T04:08:53.962Z,29.00
2024-03-28T04:11:21.580Z,24.80
2024-03-28T04:13:49.170Z,25.70
2024-03-28T04:16:16.851Z,20.60
2024-03-28T04:18:44.446Z,28.80
2024-03-28T04:21:12.186Z,32.70
2024-03-28T04:23:39.932Z,22.50
2024-03-28T04:26:07.493Z,28.80
2024-03-28T04:28:35.066Z,22.00
2024-03-28T04:31:02.931Z,19.60
2024-03-28T04:33:30.493Z,23.60
2024-03-28T04:35:58.232Z,24.60
2024-03-28T04:38:25.809Z,26.70
2024-03-28T04:40:53.509Z,27.10
2024-03-28T04:43:21.219Z,28.20
2024-03-28T04:45:48.919Z,26.20
2024-03-28T04:48:16.698Z,23.50
2024-03-28T04:50:44.304Z,28.50
2024-03-28T04:53:12.082Z,29.30
2024-03-28T04:55:41.116Z,29.70
2024-03-28T04:58:08.778Z,28.80
2024-03-28T05:00:37.411Z,25.40
2024-03-28T05:03:05.747Z,32.30
2024-03-28T05:05:33.537Z,32.20
2024-03-28T05:08:01.178Z,32.10
2024-03-28T05:10:29.145Z,35.10
2024-03-28T05:12:57.091Z,34.20
2024-03-28T05:15:24.956Z,39.80
2024-03-28T05:17:52.571Z,36.30
2024-03-28T05:20:20.404Z,30.90
2024-03-28T05:22:47.979Z,31.20
2024-03-28T05:25:15.728Z,31.90
2024-03-28T05:27:43.343Z,31.10
2024-03-28T05:30:11.304Z,32.20
2024-03-28T05:32:38.895Z,33.40
2024-03-28T05:35:06.691Z,31.50
2024-03-28T05:37:34.261Z,34.20
2024-03-28T05:40:01.969Z,35.30
2024-03-28T05:42:29.615Z,33.10
2024-03-28T05:44:57.303Z,37.60
2024-03-28T05:47:24.951Z,34.10
2024-03-28T05:49:52.586Z,35.90
2024-03-28T05:52:20.176Z,25.50
2024-03-28T05:54:47.795Z,30.80
2024-03-28T05:57:15.432Z,35.00
2024-03-28T05:59:43.031Z,29.60
2024-03-28T06:02:10.624Z,38.80
2024-03-28T06:04:38.329Z,30.30
2024-03-28T06:07:05.937Z,36.50
2024-03-28T06:09:33.550Z,29.50
2024-03-28T06:12:01.743Z,32.90
2024-03-28T06:14:29.318Z,29.00
2024-03-28T06:16:56.930Z,37.50
2024-03-28T06:19:24.501Z,34.90
2024-03-28T06:21:52.093Z,34.30
2024-03-28T06:24:20.026Z,34.80
2024-03-28T06:26:50.669Z,34.50
2024-03-28T06:29:18.254Z,35.60
2024-03-28T06:31:46.002Z,35.70
2024-03-28T06:34:13.617Z,35.70
2024-03-28T06:36:41.204Z,42.10
2024-03-28T06:39:08.930Z,32.70
2024-03-28T06:41:36.528Z,40.50
2024-03-28T06:44:04.181Z,40.70
2024-03-28T06:46:32.056Z,44.20
2024-03-28T06:48:59.649Z,36.70
2024-03-28T06:51:27.282Z,35.10
2024-03-28T06:53:54.992Z,36.10
2024-03-28T06:56:22.636Z,40.30
2024-03-28T06:58:52.105Z,36.80
2024-03-28T07:01:19.947Z,32.30
2024-03-28T07:03:47.544Z,37.80
2024-03-28T07:06:19.339Z,28.10
2024-03-28T07:08:47.296Z,31.70
2024-03-28T07:11:15.017Z,35.00
2024-03-28T07:13:42.626Z,29.40
2024-03-28T07:16:10.456Z,32.10
2024-03-28T07:18:38.077Z,25.20
2024-03-28T07:21:05.743Z,25.50
2024-03-28T07:23:33.423Z,26.60
2024-03-28T07:26:01.094Z,27.10
2024-03-28T07:28:28.707Z,30.50
2024-03-28T07:30:56.312Z,24.60
2024-03-28T07:33:23.842Z,27.80
2024-03-28T07:35:51.556Z,19.70
2024-03-28T07:38:19.553Z,25.10
2024-03-28T07:40:51.861Z,24.30
2024-03-28T07:43:19.483Z,26.70
2024-03-28T07:45:47.101Z,24.20
2024-03-28T07:48:15.062Z,24.40
2024-03-28T07:50:42.718Z,20.20
2024-03-28T07:53:10.406Z,21.00
2024-03-28T07:55:38.006Z,21.90
2024-03-28T07:58:05.615Z,23.70
2024-03-28T08:00:33.459Z,20.00
2024-03-28T08:03:01.076Z,15.70
2024-03-28T08:05:28.778Z,18.40
2024-03-28T08:07:56.425Z,12.60
2024-03-28T08:10:24.234Z,10.30
2024-03-28T08:12:51.831Z,6.80
2024-03-28T08:15:19.440Z,12.20
2024-03-28T08:17:47.208Z,6.20
2024-03-28T08:20:14.968Z,5.30
2024-03-28T08:22:43.084Z,7.10
2024-03-28T08:25:10.742Z,7.20
2024-03-28T08:27:39.795Z,4.10
2024-03-28T08:30:08.121Z,5.10
2024-03-28T08:32:35.859Z,3.60
2024-03-28T08:35:03.856Z,2.30
2024-03-28T08:37:31.520Z,1.70
2024-03-28T08:39:59.397Z,1.50
2024-03-28T08:42:27.168Z,2.00
2024-03-28T08:44:54.776Z,3.80
2024-03-28T08:47:22.548Z,1.50
2024-03-28T08:49:50.280Z,3.00
2024-03-28T08:52:18.338Z,2.40
2024-03-28T08:54:46.052Z,2.00
2024-03-28T08:57:13.678Z,3.40
2024-03-28T08:59:41.298Z,1.20
2024-03-28T09:02:08.932Z,3.50
2024-03-28T09:04:36.615Z,1.90
2024-03-28T09:07:04.426Z,1.00
2024-03-28T09:09:32.088Z,4.50
2024-03-28T09:11:59.795Z,2.30
2024-03-28T09:14:27.406Z,3.70
2024-03-28T09:16:55.193Z,2.00
2024-03-28T09:19:22.802Z,1.90
2024-03-28T09:21:50.728Z,2.80
2024-03-28T09:24:18.906Z,3.80
2024-03-28T09:26:46.642Z,1.60
2024-03-28T09:29:14.346Z,1.00
2024-03-28T09:31:41.909Z,1.80
2024-03-28T09:34:09.490Z,2.00
2024-03-28T09:36:37.523Z,2.00
2024-03-28T09:39:05.251Z,2.60
2024-03-28T09:41:34.550Z,0.80
2024-03-28T09:44:06.628Z,4.60
2024-03-28T09:46:34.759Z,1.60
2024-03-28T09:49:03.726Z,3.40
2024-03-28T09:51:31.394Z,3.30
2024-03-28T09:53:59.151Z,1.90
2024-03-28T09:56:26.698Z,1.10
2024-03-28T09:58:55.615Z,2.00
2024-03-28T10:01:25.018Z,1.40
2024-03-28T10:04:06.405Z,3.00
2024-03-28T10:06:34.060Z,1.60
2024-03-28T10:09:03.046Z,1.10
2024-03-28T10:11:31.080Z,0.60
2024-03-28T10:13:58.849Z,2.50
2024-03-28T10:16:26.651Z,1.70
2024-03-28T10:18:57.587Z,1.70
2024-03-28T10:21:25.371Z,1.20
2024-03-28T10:23:53.028Z,1.80
2024-03-28T10:26:20.791Z,3.90
2024-03-28T10:28:48.636Z,0.90
2024-03-28T10:31:26.406Z,1.10
2024-03-28T10:33:54.569Z,1.50
2024-03-28T10:36:25.285Z,1.70
2024-03-28T10:39:03.219Z,1.20
2024-03-28T10:41:31.104Z,1.10
2024-03-28T10:44:01.639Z,1.70
2024-03-28T10:46:29.938Z,1.70
2024-03-28T10:48:58.280Z,1.40
2024-03-28T10:51:32.954Z,1.50
2024-03-28T10:54:06.576Z,0.50
2024-03-28T10:56:40.376Z,1.20
2024-03-28T10:59:09.839Z,1.40
2024-03-28T11:01:38.406Z,1.70
2024-03-28T11:04:06.543Z,1.40
2024-03-28T11:06:34.401Z,0.50
2024-03-28T11:09:02.587Z,0.40
2024-03-28T11:11:31.784Z,0.50
2024-03-28T11:13:59.501Z,1.30
2024-03-28T11:16:27.236Z,0.30
2024-03-28T11:19:01.072Z,1.80
2024-03-28T11:21:30.429Z,1.00
2024-03-28T11:23:59.364Z,0.20
2024-03-28T11:26:27.747Z,1.50
2024-03-28T11:29:06.407Z,1.60
2024-03-28T11:31:35.847Z,0.70
2024-03-28T11:34:06.578Z,0.40
2024-03-28T11:36:34.699Z,0.40
2024-03-28T11:39:02.330Z,1.60
2024-03-28T11:41:30.708Z,1.10
2024-03-28T11:43:58.440Z,3.40
2024-03-28T11:46:26.021Z,0.50
2024-03-28T11:49:07.731Z,1.20
2024-03-28T11:51:43.993Z,1.60
2024-03-28T11:54:12.556Z,0.40
2024-03-28T11:56:44.102Z,0.20
2024-03-28T11:59:21.737Z,0.40
2024-03-28T12:01:50.233Z,0.90
2024-03-28T12:04:25.041Z,1.00
2024-03-28T12:06:54.715Z,0.80
2024-03-28T12:09:22.590Z,1.20
2024-03-28T12:11:50.266Z,1.00
2024-03-28T12:14:23.928Z,0.60
2024-03-28T12:16:51.645Z,1.40
2024-03-28T12:19:25.821Z,0.70
2024-03-28T12:21:53.441Z,1.80
2024-03-28T12:24:21.218Z,2.90
2024-03-28T12:26:48.836Z,3.30
2024-03-28T12:29:24.974Z,2.20
2024-03-28T12:32:06.619Z,0.90
2024-03-28T12:34:34.385Z,0.90
2024-03-28T12:37:02.165Z,0.70
2024-03-28T12:39:29.795Z,0.50
2024-03-28T12:41:57.516Z,0.90
2024-03-28T12:44:28.039Z,2.00
2024-03-28T12:46:55.611Z,2.60
2024-03-28T12:49:23.688Z,0.60
2024-03-28T12:51:51.290Z,0.90
2024-03-28T12:54:18.903Z,0.70
2024-03-28T12:56:46.689Z,1.10
2024-03-28T12:59:14.456Z,0.50
2024-03-28T13:01:42.227Z,0.40
2024-03-28T13:04:09.890Z,1.70
2024-03-28T13:06:41.830Z,0.80
2024-03-28T13:09:12.325Z,0.40
2024-03-28T13:11:39.902Z,1.40
2024-03-28T13:14:07.455Z,0.50
2024-03-28T13:16:35.063Z,0.30
2024-03-28T13:19:02.654Z,0.60
2024-03-28T13:21:30.274Z,1.00
2024-03-28T13:23:57.888Z,2.00
2024-03-28T13:26:44.061Z,0.50
2024-03-28T13:29:13.025Z,1.30
2024-03-28T13:31:40.678Z,0.90
2024-03-28T13:34:08.367Z,0.30
2024-03-28T13:36:36.324Z,1.20
2024-03-28T13:39:04.230Z,0.50
2024-03-28T13:41:32.205Z,1.30
2024-03-28T13:43:59.853Z,1.00
2024-03-28T13:46:27.744Z,0.80
2024-03-28T13:48:55.457Z,1.30
2024-03-28T13:51:23.158Z,0.20
2024-03-28T13:53:50.740Z,0.50
2024-03-28T13:56:18.413Z,0.30
2024-03-28T13:58:46.216Z,0.60
2024-03-28T14:01:14.378Z,1.00
2024-03-28T14:03:42.005Z,0.50
2024-03-28T14:06:09.659Z,0.40
2024-03-28T14:08:37.328Z,0.90
2024-03-28T14:11:05.019Z,0.50
2024-03-28T14:13:32.631Z,0.60
2024-03-28T14:16:00.733Z,1.10
2024-03-28T14:18:28.390Z,0.80
2024-03-28T14:20:55.978Z,0.80
2024-03-28T14:23:23.953Z,3.00
2024-03-28T14:26:00.161Z,1.10
2024-03-28T14:28:28.468Z,1.30
2024-03-28T14:30:56.392Z,3.80
2024-03-28T14:33:23.987Z,0.60
2024-03-28T14:36:06.302Z,1.40
2024-03-28T14:38:34.589Z,1.40
2024-03-28T14:41:07.362Z,0.60
2024-03-28T14:43:36.687Z,5.70
2024-03-28T14:46:09.188Z,2.90
2024-03-28T14:48:37.682Z,1.30
2024-03-28T14:51:09.911Z,2.30
2024-03-28T14:53:38.943Z,0.70
2024-03-28T14:56:07.082Z,0.80
2024-03-28T14:58:42.489Z,1.70
2024-03-28T15:01:12.651Z,2.40
2024-03-28T15:03:40.423Z,0.80
2024-03-28T15:06:08.312Z,2.40
2024-03-28T15:08:35.976Z,1.10
2024-03-28T15:11:05.065Z,2.50
2024-03-28T15:13:32.882Z,1.10
2024-03-28T15:16:02.203Z,1.60
2024-03-28T15:18:29.901Z,0.70
2024-03-28T15:20:57.547Z,1.20
2024-03-28T15:23:25.998Z,0.90
2024-03-28T15:25:53.623Z,1.80
2024-03-28T15:28:21.253Z,1.40
2024-03-28T15:30:49.324Z,2.10
2024-03-28T15:33:16.878Z,1.40
2024-03-28T15:35:44.506Z,1.00
2024-03-28T15:38:12.134Z,1.80
2024-03-28T15:40:39.835Z,2.10
2024-03-28T15:43:07.593Z,1.10
2024-03-28T15:45:35.573Z,0.90
2024-03-28T15:48:03.547Z,0.50
2024-03-28T15:50:31.192Z,0.70
2024-03-28T15:52:58.964Z,0.60
2024-03-28T15:55:26.720Z,1.30
2024-03-28T15:57:54.329Z,2.60
2024-03-28T16:00:22.097Z,1.20
2024-03-28T16:02:49.803Z,1.00
2024-03-28T16:05:17.600Z,3.20
2024-03-28T16:07:45.550Z,1.80
2024-03-28T16:10:14.672Z,0.80
2024-03-28T16:12:43.774Z,2.20
2024-03-28T16:15:11.383Z,1.60
2024-03-28T16:17:39.111Z,4.20
2024-03-28T16:20:07.370Z,4.70
2024-03-28T16:22:34.994Z,5.20
2024-03-28T16:25:02.774Z,2.60
2024-03-28T16:27:30.684Z,17.10
2024-03-28T16:29:58.299Z,4.40
2024-03-28T16:32:25.927Z,2.10
2024-03-28T16:34:53.588Z,3.50
2024-03-28T16:37:21.175Z,4.00
2024-03-28T16:39:48.849Z,4.90
2024-03-28T16:42:16.483Z,5.40
2024-03-28T16:44:44.163Z,3.50
2024-03-28T16:47:12.028Z,10.40
2024-03-28T16:49:39.611Z,5.80
2024-03-28T16:52:07.815Z,4.50
2024-03-28T16:54:35.431Z,12.40
2024-03-28T16:57:03.107Z,7.20
2024-03-28T16:59:30.788Z,62.10
2024-03-28T17:01:58.355Z,28.30
2024-03-28T17:04:27.379Z,16.90
2024-03-28T17:06:56.506Z,3.40
2024-03-28T17:09:24.118Z,7.00
2024-03-28T17:11:52.666Z,5.70
2024-03-28T17:14:20.603Z,55.30
2024-03-28T17:16:48.240Z,3.60
2024-03-28T17:19:18.224Z,1.40
2024-03-28T17:21:47.666Z,9.30
2024-03-28T17:24:15.247Z,29.50
2024-03-28T17:26:42.948Z,3.60
2024-03-28T17:29:10.703Z,6.70
2024-03-28T17:31:38.300Z,2.20
2024-03-28T17:34:06.004Z,3.00
2024-03-28T17:36:33.707Z,7.90
2024-03-28T17:39:01.379Z,8.70
2024-03-28T17:41:29.295Z,12.60
2024-03-28T17:43:57.009Z,8.00
2024-03-28T17:46:25.749Z,7.00
2024-03-28T17:48:54.710Z,6.30
2024-03-28T17:51:22.470Z,9.40
2024-03-28T17:53:50.705Z,13.40
2024-03-28T17:56:18.356Z,4.20
2024-03-28T17:58:46.273Z,5.40
2024-03-28T18:01:13.874Z,6.90
2024-03-28T18:03:41.793Z,4.80
2024-03-28T18:06:09.419Z,5.40
2024-03-28T18:08:37.014Z,3.70
2024-03-28T18:11:04.706Z,5.80
2024-03-28T18:13:32.433Z,8.20
2024-03-28T18:16:04.108Z,5.60
2024-03-28T18:18:31.820Z,6.20
2024-03-28T18:21:03.215Z,6.50
2024-03-28T18:23:30.914Z,5.40
2024-03-28T18:26:00.906Z,5.80
2024-03-28T18:28:28.757Z,4.60
2024-03-28T18:30:56.384Z,5.60
2024-03-28T18:33:24.152Z,3.00
2024-03-28T18:36:02.012Z,3.80
2024-03-28T18:38:29.962Z,4.50
2024-03-28T18:40:57.644Z,4.20
2024-03-28T18:43:25.666Z,5.90
2024-03-28T18:45:58.656Z,4.40
2024-03-28T18:48:26.814Z,13.30
2024-03-28T18:50:55.730Z,19.00
2024-03-28T18:53:23.465Z,19.50
2024-03-28T18:56:02.035Z,11.90
2024-03-28T18:58:29.726Z,10.10
2024-03-28T19:00:57.819Z,11.80
2024-03-28T19:03:25.607Z,9.40
2024-03-28T19:05:53.425Z,11.90
2024-03-28T19:08:21.120Z,12.40
2024-03-28T19:10:49.777Z,14.20
2024-03-28T19:13:17.384Z,12.60
2024-03-28T19:15:47.582Z,19.20
2024-03-28T19:18:16.037Z,34.70
2024-03-28T19:20:46.799Z,25.70
2024-03-28T19:23:16.580Z,21.90
2024-03-28T19:25:46.631Z,33.40
2024-03-28T19:28:14.976Z,16.60
2024-03-28T19:30:45.170Z,14.90
2024-03-28T19:33:13.349Z,12.00
2024-03-28T19:35:42.381Z,11.10
2024-03-28T19:38:12.381Z,9.20
2024-03-28T19:40:40.109Z,9.80
2024-03-28T19:43:07.852Z,109.50
2024-03-28T19:45:37.912Z,29.10
2024-03-28T19:48:07.489Z,13.60
2024-03-28T19:50:35.746Z,12.10
2024-03-28T19:53:04.613Z,40.80
2024-03-28T19:55:33.023Z,11.10
2024-03-28T19:58:01.003Z,11.00
2024-03-28T20:00:29.222Z,17.40
2024-03-28T20:02:56.952Z,11.70
2024-03-28T20:05:25.918Z,25.20
2024-03-28T20:07:58.742Z,21.20
2024-03-28T20:10:26.681Z,20.00
2024-03-28T20:12:54.285Z,33.20
2024-03-28T20:15:24.249Z,52.00
2024-03-28T20:17:52.008Z,32.00
2024-03-28T20:20:19.636Z,49.30
2024-03-28T20:22:47.580Z,27.90
2024-03-28T20:25:15.397Z,20.60
2024-03-28T20:27:43.379Z,18.30
2024-03-28T20:30:11.682Z,14.80
2024-03-28T20:32:39.411Z,17.00
2024-03-28T20:35:07.352Z,17.80
2024-03-28T20:37:37.846Z,21.80
2024-03-28T20:40:06.286Z,17.90
2024-03-28T20:42:33.948Z,19.90
2024-03-28T20:45:01.634Z,14.60
2024-03-28T20:47:29.469Z,15.30
2024-03-28T20:49:57.373Z,17.50
2024-03-28T20:52:25.075Z,15.70
2024-03-28T21:18:09.306Z,6.70
2024-03-28T21:20:36.992Z,7.20
2024-03-28T21:23:04.790Z,6.40
2024-03-28T21:25:32.675Z,4.80
2024-03-28T21:28:00.449Z,6.40
2024-03-28T21:30:30.213Z,5.10
2024-03-28T21:32:57.989Z,6.30
2024-03-28T21:35:29.164Z,4.70
2024-03-28T21:37:56.787Z,5.90
2024-03-28T21:40:24.612Z,4.40
2024-03-28T21:42:52.311Z,3.90
2024-03-28T21:45:19.994Z,3.10
2024-03-28T21:47:47.699Z,5.10
2024-03-28T21:50:15.373Z,3.60
2024-03-28T21:52:43.058Z,5.70
2024-03-28T21:55:11.399Z,4.50
2024-03-28T21:57:39.114Z,4.20
2024-03-28T22:00:07.762Z,5.30
2024-03-28T22:02:36.038Z,4.20
2024-03-28T22:05:03.870Z,3.20
2024-03-28T22:07:31.552Z,4.90
2024-03-28T22:10:00.074Z,3.40
2024-03-28T22:12:27.850Z,3.80
2024-03-28T22:14:55.412Z,2.20
2024-03-28T22:17:23.175Z,4.20
2024-03-28T22:19:50.762Z,3.70
2024-03-28T22:22:18.332Z,3.20
2024-03-28T22:24:46.512Z,5.20
2024-03-28T22:27:14.344Z,4.50
2024-03-28T22:29:41.938Z,3.40
2024-03-28T22:32:09.634Z,4.70
2024-03-28T22:34:37.474Z,3.20
2024-03-28T22:37:05.126Z,4.40
2024-03-28T22:39:33.112Z,2.40
2024-03-28T22:42:01.020Z,1.40
2024-03-28T22:44:28.608Z,2.20
2024-03-28T22:46:56.336Z,2.10
2024-03-28T22:49:24.156Z,0.90
2024-03-28T22:51:52.657Z,1.20
2024-03-28T22:54:20.572Z,2.80
2024-03-28T22:56:48.323Z,1.90
2024-03-28T22:59:15.882Z,2.60
2024-03-28T23:01:43.603Z,2.20
2024-03-28T23:04:11.429Z,2.20
2024-03-28T23:06:39.055Z,2.30
2024-03-28T23:09:06.672Z,2.10
2024-03-28T23:11:34.261Z,1.80
2024-03-28T23:14:01.925Z,1.90
2024-03-28T23:16:29.727Z,1.80
2024-03-28T23:18:57.327Z,1.50
2024-03-28T23:21:25.286Z,1.60
2024-03-28T23:23:53.019Z,2.60
2024-03-28T23:26:20.669Z,1.10
2024-03-28T23:28:48.892Z,2.40
2024-03-28T23:31:16.493Z,4.30
2024-03-28T23:33:44.088Z,3.30
2024-03-28T23:36:11.727Z,2.70
2024-03-28T23:38:39.684Z,2.30
2024-03-28T23:41:07.357Z,2.40
2024-03-28T23:43:34.984Z,2.60
2024-03-28T23:46:02.730Z,2.50
2024-03-28T23:48:30.369Z,2.50
2024-03-28T23:50:58.146Z,2.40
2024-03-28T23:53:25.988Z,2.80
2024-03-28T23:55:53.697Z,2.60
2024-03-28T23:58:21.285Z,2.20
